Time;durP1;ratioP1;P1;durP2;ratioP2;P2;SDS_P1;SDS_P2;PMS_P1;PMS_P2;Temp;Humidity;BMP_temperature;BMP_pressure;BME280_temperature;BME280_humidity;BME280_pressure;Samples;Min_cycle;Max_cycle;Signal;HPM_P1;HPM_P2
2022/07/30 00:00:46;;;;;;;21.30;7.75;;;;;;;17.35;65.66;99443.28;5074082;28;20036;-55
2022/07/30 00:03:12;;;;;;;19.67;7.75;;;;;;;17.41;65.71;99442.13;5078515;28;20032;-56
2022/07/30 00:05:37;;;;;;;19.95;8.35;;;;;;;17.33;66.13;99434.63;5073715;28;20020;-56
2022/07/30 00:08:03;;;;;;;16.88;8.80;;;;;;;17.39;65.65;99438.88;5072354;28;20017;-56
2022/07/30 00:10:28;;;;;;;17.35;7.97;;;;;;;17.45;65.08;99432.34;5076176;28;20071;-55
2022/07/30 00:12:53;;;;;;;20.23;7.25;;;;;;;17.48;65.28;99430.19;5076834;28;20569;-56
2022/07/30 00:15:19;;;;;;;19.92;7.40;;;;;;;17.45;65.85;99432.34;5074043;28;20070;-56
2022/07/30 00:17:44;;;;;;;19.40;7.43;;;;;;;17.41;65.95;99436.72;5072984;28;20023;-56
2022/07/30 00:20:10;;;;;;;17.35;7.85;;;;;;;17.35;65.55;99437.84;5072158;28;20028;-55
2022/07/30 00:22:35;;;;;;;18.83;8.40;;;;;;;17.26;65.88;99439.53;5072393;28;20519;-55
2022/07/30 00:25:01;;;;;;;19.30;8.45;;;;;;;17.24;66.58;99439.00;5073547;28;20024;-54
2022/07/30 00:27:26;;;;;;;20.17;9.60;;;;;;;17.11;67.04;99440.44;5073251;28;20440;-56
2022/07/30 00:29:52;;;;;;;16.63;8.48;;;;;;;17.03;67.38;99441.84;5073785;28;20056;-57
2022/07/30 00:32:17;;;;;;;24.05;9.48;;;;;;;16.88;68.00;99441.13;5073194;28;20036;-57
2022/07/30 00:34:43;;;;;;;14.35;8.40;;;;;;;16.81;68.44;99436.81;5072667;28;20090;-56
2022/07/30 00:37:08;;;;;;;31.23;9.65;;;;;;;16.87;68.40;99437.59;5073350;28;20039;-56
2022/07/30 00:39:33;;;;;;;20.25;9.15;;;;;;;16.91;68.64;99441.38;5073264;28;20036;-56
2022/07/30 00:42:01;;;;;;;15.35;9.02;;;;;;;16.85;68.34;99433.53;5072904;28;20351;-56
2022/07/30 00:44:27;;;;;;;22.25;9.20;;;;;;;16.86;68.61;99438.69;5073008;28;20058;-56
2022/07/30 00:46:52;;;;;;;23.88;9.63;;;;;;;16.89;69.05;99434.63;5071810;28;20025;-56
2022/07/30 00:49:18;;;;;;;18.88;9.27;;;;;;;16.98;68.86;99431.03;5072098;28;20064;-56
2022/07/30 00:51:43;;;;;;;21.60;9.90;;;;;;;16.95;69.25;99431.59;5073140;28;20471;-56
2022/07/30 00:54:09;;;;;;;20.05;8.93;;;;;;;17.03;68.59;99431.00;5073092;28;20027;-56
2022/07/30 00:56:34;;;;;;;18.33;9.43;;;;;;;16.95;69.12;99434.31;5072817;28;20035;-56
2022/07/30 00:59:00;;;;;;;22.13;9.93;;;;;;;16.93;68.99;99438.41;5072842;28;20031;-56
2022/07/30 01:01:25;;;;;;;22.60;9.82;;;;;;;16.84;68.97;99430.03;5072672;28;20454;-56
2022/07/30 01:03:51;;;;;;;18.75;10.32;;;;;;;16.79;69.57;99432.75;5071403;28;20400;-56
2022/07/30 01:06:16;;;;;;;18.38;9.35;;;;;;;16.77;69.61;99426.78;5072605;28;20024;-56
2022/07/30 01:08:44;;;;;;;25.80;11.13;;;;;;;16.58;70.48;99426.63;5077711;28;20451;-55
2022/07/30 01:11:10;;;;;;;18.75;9.52;;;;;;;16.51;71.07;99431.50;5072801;28;20471;-56
2022/07/30 01:13:36;;;;;;;17.80;10.15;;;;;;;16.54;70.59;99430.94;5070813;28;20031;-56
2022/07/30 01:16:01;;;;;;;20.05;10.52;;;;;;;16.46;71.18;99428.81;5072379;28;20031;-56
2022/07/30 01:19:47;;;;;;;22.13;10.80;;;;;;;16.42;71.55;99433.97;5066824;28;20035;-56
2022/07/30 01:21:13;;;;;;;20.42;10.60;;;;;;;16.37;71.97;99426.69;5071602;28;20051;-56
2022/07/30 01:23:39;;;;;;;19.92;11.00;;;;;;;16.32;72.18;99436.72;5054475;28;20459;-56
2022/07/30 01:26:07;;;;;;;25.92;10.93;;;;;;;16.30;72.54;99431.59;5051783;28;20024;-55
2022/07/30 01:28:37;;;;;;;22.80;11.70;;;;;;;16.32;72.61;99436.72;5070216;28;20035;-57
2022/07/30 01:31:03;;;;;;;23.67;10.80;;;;;;;16.38;72.33;99438.31;5071002;28;20028;-55
2022/07/30 01:33:28;;;;;;;23.80;11.80;;;;;;;16.45;72.35;99440.72;5070443;28;20032;-56
2022/07/30 01:35:54;;;;;;;26.83;11.73;;;;;;;16.43;72.21;99441.00;5070860;28;20027;-56
2022/07/30 01:38:21;;;;;;;22.83;12.13;;;;;;;16.42;72.34;99435.88;5072072;28;20033;-56
2022/07/30 01:40:48;;;;;;;22.40;11.23;;;;;;;16.49;71.78;99434.47;5070700;28;20077;-56
2022/07/30 01:43:13;;;;;;;26.20;12.02;;;;;;;16.51;72.42;99440.44;5054264;28;20039;-56
2022/07/30 01:45:39;;;;;;;21.90;11.32;;;;;;;16.59;71.84;99439.03;5070855;28;20032;-56
2022/07/30 01:48:04;;;;;;;24.23;12.05;;;;;;;16.60;71.95;99438.78;5070840;28;20036;-56
2022/07/30 01:50:30;;;;;;;29.50;11.75;;;;;;;16.49;72.56;99430.97;5054163;28;20078;-56
2022/07/30 01:52:56;;;;;;;21.65;12.35;;;;;;;16.47;72.36;99444.75;5054180;28;20032;-57
2022/07/30 01:55:29;;;;;;;19.77;12.13;;;;;;;16.30;72.94;99445.13;5071836;28;20462;-56
2022/07/30 01:57:55;;;;;;;23.80;12.75;;;;;;;16.17;73.18;99437.56;5071666;28;20028;-57
2022/07/30 02:00:20;;;;;;;27.30;13.40;;;;;;;16.17;73.83;99435.69;5070575;28;20021;-55
2022/07/30 02:02:46;;;;;;;25.15;12.77;;;;;;;16.23;73.44;99439.19;5053457;28;20024;-55
2022/07/30 02:05:14;;;;;;;20.77;12.88;;;;;;;16.23;73.20;99433.78;5053874;28;20391;-55
2022/07/30 02:07:57;;;;;;;24.52;13.57;;;;;;;16.27;73.41;99442.13;5071014;28;20059;-56
2022/07/30 02:10:41;;;;;;;28.45;13.73;;;;;;;16.13;73.73;99429.19;5070430;28;20077;-55
2022/07/30 02:13:06;;;;;;;27.48;13.60;;;;;;;15.99;74.22;99432.72;5071708;28;20094;-56
2022/07/30 02:15:45;;;;;;;29.13;13.57;;;;;;;15.93;74.40;99445.47;5055236;28;20115;-56
2022/07/30 02:18:48;;;;;;;26.83;14.63;;;;;;;15.89;74.85;99433.56;5058054;28;20035;-56
2022/07/30 02:21:13;;;;;;;33.33;15.63;;;;;;;15.91;74.70;99434.91;5075621;28;20086;-57
2022/07/30 02:23:40;;;;;;;28.38;14.85;;;;;;;15.92;74.77;99430.31;5074769;28;20451;-57
2022/07/30 02:26:07;;;;;;;31.17;14.93;;;;;;;15.84;74.76;99428.16;5074313;28;20039;-57
2022/07/30 02:28:35;;;;;;;27.92;16.95;;;;;;;15.73;75.35;99425.47;5070524;28;20042;-57
2022/07/30 02:31:02;;;;;;;29.10;14.27;;;;;;;15.78;75.43;99437.38;5077723;28;20029;-57
2022/07/30 02:33:30;;;;;;;24.08;13.82;;;;;;;15.89;74.84;99433.56;5057055;28;20111;-56
2022/07/30 02:35:55;;;;;;;25.50;14.43;;;;;;;15.96;74.76;99437.59;5075277;28;20551;-57
2022/07/30 02:38:21;;;;;;;23.67;14.13;;;;;;;15.93;74.70;99435.44;5075157;28;20032;-57
2022/07/30 02:40:47;;;;;;;30.27;15.20;;;;;;;15.91;74.95;99431.41;5089259;28;20112;-56
2022/07/30 02:43:16;;;;;;;28.75;15.18;;;;;;;15.91;74.80;99442.22;5074163;28;20033;-57
2022/07/30 02:45:42;;;;;;;27.42;14.50;;;;;;;15.80;75.32;99440.59;5075225;28;20071;-57
2022/07/30 02:48:08;;;;;;;30.75;15.18;;;;;;;15.69;75.60;99437.88;5080944;28;20029;-57
2022/07/30 02:50:34;;;;;;;29.90;14.57;;;;;;;15.57;75.83;99442.72;5073685;28;20546;-57
2022/07/30 02:52:59;;;;;;;25.40;14.13;;;;;;;15.40;76.54;99447.56;5075238;28;20425;-57
2022/07/30 02:55:26;;;;;;;28.65;15.15;;;;;;;15.38;76.75;99436.25;5057120;28;20016;-56
2022/07/30 02:57:52;;;;;;;25.35;14.68;;;;;;;15.31;77.13;99437.31;5074774;28;20061;-56
2022/07/30 03:00:17;;;;;;;25.55;14.02;;;;;;;15.23;77.45;99442.44;5043414;28;20015;-55
2022/07/30 03:02:42;;;;;;;33.33;14.98;;;;;;;15.21;77.79;99441.91;5076481;28;20428;-56
2022/07/30 03:05:08;;;;;;;25.67;14.18;;;;;;;15.13;78.24;99443.22;5056705;28;20120;-55
2022/07/30 03:07:34;;;;;;;24.83;13.70;;;;;;;15.09;77.89;99450.22;5073992;28;20421;-55
2022/07/30 03:10:00;;;;;;;26.58;12.93;;;;;;;14.89;77.75;99448.28;5074852;28;20111;-55
2022/07/30 03:12:25;;;;;;;28.75;13.40;;;;;;;14.73;79.05;99447.44;5056920;28;20025;-55
2022/07/30 03:14:51;;;;;;;25.98;13.55;;;;;;;14.75;80.42;99449.84;5056536;28;20031;-56
2022/07/30 03:17:16;;;;;;;26.20;14.63;;;;;;;14.75;80.03;99450.69;5073214;28;20394;-56
2022/07/30 03:19:42;;;;;;;26.20;13.60;;;;;;;14.93;79.89;99452.09;5075920;28;20025;-56
2022/07/30 03:22:07;;;;;;;23.10;13.35;;;;;;;14.86;79.66;99452.34;5073192;28;20025;-55
2022/07/30 03:24:33;;;;;;;24.48;13.15;;;;;;;14.94;80.18;99451.00;5073281;28;20028;-58
2022/07/30 03:26:59;;;;;;;26.00;13.60;;;;;;;14.90;79.81;99449.91;5073841;28;20028;-57
2022/07/30 03:29:25;;;;;;;22.27;12.63;;;;;;;15.07;78.96;99457.78;5073091;28;20107;-57
2022/07/30 03:31:50;;;;;;;24.58;13.20;;;;;;;15.17;78.03;99460.50;5073197;28;20021;-57
2022/07/30 03:34:16;;;;;;;23.73;12.70;;;;;;;15.13;78.40;99459.44;5073850;28;20533;-57
2022/07/30 03:36:42;;;;;;;24.45;13.07;;;;;;;15.02;78.16;99465.88;5056773;28;20438;-57
2022/07/30 03:39:07;;;;;;;20.90;11.55;;;;;;;14.74;79.59;99462.53;5073177;28;20036;-57
2022/07/30 03:41:32;;;;;;;22.40;11.40;;;;;;;14.72;80.41;99464.69;5072783;28;20025;-56
2022/07/30 03:43:59;;;;;;;19.05;11.70;;;;;;;14.51;80.79;99468.34;5057101;28;20094;-56
2022/07/30 03:46:24;;;;;;;19.88;11.38;;;;;;;14.36;81.93;99466.38;5072921;28;20028;-56
2022/07/30 03:48:50;;;;;;;24.20;13.07;;;;;;;14.37;82.71;99460.72;5058776;28;20036;-57
2022/07/30 03:51:16;;;;;;;22.67;13.77;;;;;;;14.59;81.83;99470.56;5056296;28;20024;-56
2022/07/30 03:53:41;;;;;;;19.92;11.82;;;;;;;14.51;81.56;99468.34;5072702;28;20051;-56
2022/07/30 03:56:07;;;;;;;29.13;13.52;;;;;;;14.41;82.39;99474.50;5072747;28;20508;-56
2022/07/30 03:58:32;;;;;;;19.17;13.52;;;;;;;14.59;81.92;99470.56;5072399;28;20517;-56
2022/07/30 04:00:57;;;;;;;19.92;12.57;;;;;;;14.63;81.17;99471.69;5073122;28;20020;-57
2022/07/30 04:03:26;;;;;;;18.23;13.00;;;;;;;14.66;81.52;99477.34;5073044;28;20045;-56
2022/07/30 04:05:52;;;;;;;20.73;12.52;;;;;;;14.67;81.62;99476.25;5073719;28;20039;-55
2022/07/30 04:08:17;;;;;;;17.40;11.77;;;;;;;14.72;80.96;99480.88;5072774;28;21285;-56
2022/07/30 04:10:43;;;;;;;23.92;12.55;;;;;;;14.66;81.64;99484.63;5080547;28;20470;-56
2022/07/30 04:13:08;;;;;;;19.77;11.35;;;;;;;14.82;80.83;99483.59;5073855;28;20479;-56
2022/07/30 04:15:38;;;;;;;28.40;11.70;;;;;;;15.36;78.29;99489.72;5077716;28;20016;-56
2022/07/30 04:18:04;;;;;;;;;;;;;;;15.64;75.79;99502.72;5073733;28;20112;-56
2022/07/30 04:20:35;;;;;;;15.70;9.32;;;;;;;15.77;75.32;99500.59;5087439;28;20351;-56
2022/07/30 04:23:01;;;;;;;18.02;10.15;;;;;;;15.70;75.86;99498.13;5059298;28;20531;-56
2022/07/30 04:25:29;;;;;;;22.65;9.98;;;;;;;15.32;77.20;99498.34;5073593;28;20470;-56
2022/07/30 04:27:54;;;;;;;15.38;10.27;;;;;;;15.09;78.50;99505.03;5055334;28;20021;-56
2022/07/30 04:30:20;;;;;;;14.90;9.27;;;;;;;15.59;76.83;99510.00;5073195;28;20474;-57
2022/07/30 04:32:45;;;;;;;14.15;7.82;;;;;;;16.40;73.38;99506.50;5071973;28;20425;-57
2022/07/30 04:35:11;;;;;;;16.15;8.52;;;;;;;16.70;70.40;99518.28;5073561;28;20518;-57
2022/07/30 04:37:36;;;;;;;16.90;8.43;;;;;;;16.11;72.90;99523.28;5072765;28;20467;-57
2022/07/30 04:40:02;;;;;;;11.57;8.07;;;;;;;16.18;71.62;99523.81;5073132;28;20035;-57
2022/07/30 04:42:27;;;;;;;15.40;8.45;;;;;;;16.12;72.29;99524.88;5073126;28;20488;-57
2022/07/30 04:44:53;;;;;;;18.02;9.02;;;;;;;15.29;77.36;99520.47;5072903;28;20505;-56
2022/07/30 04:47:19;;;;;;;17.98;9.38;;;;;;;16.16;75.46;99530.59;5073086;28;20024;-56
2022/07/30 04:49:44;;;;;;;18.20;8.80;;;;;;;16.29;74.09;99527.31;5072463;28;20027;-56
2022/07/30 04:52:10;;;;;;;19.27;8.88;;;;;;;16.00;75.50;99532.50;5071668;28;20390;-56
2022/07/30 04:54:38;;;;;;;14.63;8.80;;;;;;;15.65;76.14;99539.47;5085720;28;20021;-57
2022/07/30 04:57:03;;;;;;;12.90;8.70;;;;;;;16.48;73.48;99532.16;5071377;28;20024;-56
2022/07/30 04:59:29;;;;;;;17.42;8.98;;;;;;;17.15;71.53;99532.78;5071428;28;20467;-57
2022/07/30 05:01:55;;;;;;;14.50;8.55;;;;;;;18.60;66.27;99536.84;5071586;28;20416;-57
2022/07/30 05:04:21;;;;;;;13.25;7.80;;;;;;;18.95;64.11;99539.19;5070733;28;20036;-57
2022/07/30 05:06:47;;;;;;;10.35;8.02;;;;;;;17.95;67.18;99538.00;5073336;28;20104;-55
2022/07/30 05:09:14;;;;;;;12.10;8.10;;;;;;;19.60;62.33;99544.00;5071438;28;20040;-57
2022/07/30 05:11:39;;;;;;;13.18;7.53;;;;;;;20.34;59.85;99539.84;5054542;28;20056;-57
2022/07/30 05:14:05;;;;;;;16.55;7.03;;;;;;;20.64;58.39;99549.41;5072404;28;20039;-58
2022/07/30 05:16:32;;;;;;;13.45;7.28;;;;;;;21.63;56.14;99552.56;5075338;28;20028;-58
2022/07/30 05:18:58;;;;;;;19.13;7.32;;;;;;;21.81;54.79;99543.41;5077846;28;20035;-57
2022/07/30 05:21:23;;;;;;;12.18;6.82;;;;;;;19.86;61.02;99546.38;5072322;28;20032;-57
2022/07/30 05:23:49;;;;;;;12.77;7.35;;;;;;;22.33;54.26;99554.69;5072468;28;20024;-57
2022/07/30 05:26:18;;;;;;;13.35;7.30;;;;;;;22.07;53.49;99557.25;5072315;28;20029;-58
2022/07/30 05:28:43;;;;;;;16.77;7.18;;;;;;;23.19;50.81;99552.66;5079410;28;20031;-55
2022/07/30 05:31:09;;;;;;;15.48;6.75;;;;;;;23.85;49.00;99547.09;5072294;28;20246;-57
2022/07/30 05:33:34;;;;;;;16.20;6.88;;;;;;;24.40;48.00;99551.03;5071722;28;20036;-57
2022/07/30 05:36:00;;;;;;;15.05;6.88;;;;;;;24.66;47.49;99564.66;5072408;28;20532;-57
2022/07/30 05:38:25;;;;;;;15.95;7.28;;;;;;;25.31;45.93;99563.41;5072140;28;20509;-57
2022/07/30 05:40:51;;;;;;;10.43;6.55;;;;;;;25.74;44.53;99553.25;5072058;28;20525;-57
2022/07/30 05:43:16;;;;;;;18.08;6.93;;;;;;;25.15;45.68;99552.16;5071751;28;20506;-57
2022/07/30 05:45:42;;;;;;;14.60;7.38;;;;;;;25.41;45.33;99559.47;5071233;28;20024;-57
2022/07/30 05:48:07;;;;;;;12.38;7.30;;;;;;;25.22;45.71;99564.59;5071685;28;20131;-57
2022/07/30 05:50:35;;;;;;;14.98;7.15;;;;;;;26.33;43.66;99565.94;5071564;28;20031;-56
2022/07/30 05:53:01;;;;;;;16.40;7.43;;;;;;;25.79;44.52;99566.78;5072065;28;20037;-57
2022/07/30 05:55:26;;;;;;;19.10;7.70;;;;;;;26.09;44.35;99572.19;5072025;28;20021;-58
2022/07/30 05:57:52;;;;;;;13.20;7.30;;;;;;;27.86;41.20;99566.53;5072112;28;20459;-57
2022/07/30 06:00:17;;;;;;;15.07;8.13;;;;;;;26.82;43.01;99557.81;5072198;28;20360;-57
2022/07/30 06:02:43;;;;;;;15.00;7.32;;;;;;;25.28;46.12;99569.53;5071394;28;20024;-57
2022/07/30 06:05:08;;;;;;;17.08;7.93;;;;;;;25.98;45.02;99566.28;5071704;28;20037;-57
2022/07/30 06:07:34;;;;;;;14.50;7.85;;;;;;;26.81;43.65;99562.53;5071979;28;20412;-58
2022/07/30 06:10:00;;;;;;;17.42;9.15;;;;;;;27.28;42.12;99559.31;5077837;28;20035;-57
2022/07/30 06:12:28;;;;;;;16.00;7.88;;;;;;;28.25;40.75;99573.09;5072208;28;20529;-57
2022/07/30 06:14:54;;;;;;;16.23;8.10;;;;;;;28.57;40.17;99579.50;5071898;28;20044;-57
2022/07/30 06:17:21;;;;;;;18.33;8.60;;;;;;;28.16;40.20;99578.78;5071354;28;20425;-55
2022/07/30 06:19:46;;;;;;;19.25;9.73;;;;;;;28.12;39.76;99569.63;5071486;28;20029;-55
2022/07/30 06:22:12;;;;;;;20.48;10.20;;;;;;;28.47;38.75;99573.72;5071474;28;20332;-54
2022/07/30 06:24:37;;;;;;;24.17;10.05;;;;;;;28.67;38.71;99582.91;5071714;28;20032;-55
2022/07/30 06:27:03;;;;;;;20.80;9.80;;;;;;;28.25;38.62;99584.13;5071644;28;20027;-57
2022/07/30 06:29:28;;;;;;;22.02;10.55;;;;;;;29.06;37.32;99585.84;5084190;28;20039;-57
2022/07/30 06:31:53;;;;;;;22.67;10.90;;;;;;;28.72;37.32;99580.66;5071784;28;20425;-55
2022/07/30 06:34:19;;;;;;;23.95;11.75;;;;;;;29.25;37.02;99580.38;5071023;28;20052;-57
2022/07/30 06:36:44;;;;;;;31.40;10.35;;;;;;;28.52;38.09;99581.72;5071598;28;20413;-55
2022/07/30 06:39:10;;;;;;;22.58;10.90;;;;;;;28.17;38.13;99580.38;5071489;28;20125;-57
2022/07/30 06:41:35;;;;;;;21.88;11.10;;;;;;;28.59;37.21;99581.91;5071446;28;20021;-57
2022/07/30 06:44:01;;;;;;;20.20;11.15;;;;;;;29.52;36.16;99588.84;5071385;28;20032;-55
2022/07/30 06:46:26;;;;;;;22.35;11.27;;;;;;;28.61;37.33;99585.13;5079645;28;20066;-55
2022/07/30 06:48:51;;;;;;;18.77;10.82;;;;;;;28.31;38.47;99587.47;5070950;28;20029;-57
2022/07/30 06:51:17;;;;;;;22.05;10.02;;;;;;;30.08;35.29;99594.00;5070110;28;20398;-56
2022/07/30 06:53:44;;;;;;;24.95;10.32;;;;;;;29.76;35.89;99593.34;5071439;28;20029;-56
2022/07/30 06:56:10;;;;;;;28.05;10.32;;;;;;;28.93;36.89;99583.16;5071428;28;20035;-56
2022/07/30 06:58:36;;;;;;;21.15;10.45;;;;;;;28.95;37.10;99589.09;5071120;28;20024;-55
2022/07/30 07:01:01;;;;;;;30.48;11.23;;;;;;;26.76;41.17;99587.50;5071786;28;20029;-57
2022/07/30 07:03:26;;;;;;;28.70;11.48;;;;;;;28.84;37.12;99588.06;5074596;28;20506;-55
2022/07/30 07:05:52;;;;;;;27.52;10.52;;;;;;;29.84;36.25;99604.19;5075252;28;20021;-56
2022/07/30 07:08:17;;;;;;;28.23;12.75;;;;;;;29.66;35.61;99608.53;5077277;28;20032;-56
2022/07/30 07:10:43;;;;;;;35.88;13.45;;;;;;;28.35;37.67;99596.59;5074815;28;20028;-55
2022/07/30 07:13:08;;;;;;;30.98;14.27;;;;;;;28.66;38.05;99606.13;5074798;28;20497;-56
2022/07/30 07:15:34;;;;;;;41.28;13.50;;;;;;;28.65;37.96;99599.78;5080589;28;20027;-57
2022/07/30 07:17:59;;;;;;;26.67;12.55;;;;;;;27.89;38.51;99604.41;5081195;28;20027;-55
2022/07/30 07:20:24;;;;;;;22.25;12.20;;;;;;;28.69;37.79;99603.44;5081182;28;20031;-55
2022/07/30 07:22:50;;;;;;;23.50;11.75;;;;;;;28.53;37.22;99600.69;5078413;28;20508;-56
2022/07/30 07:25:16;;;;;;;23.58;11.85;;;;;;;27.92;38.80;99598.19;5079104;28;20466;-58
2022/07/30 07:27:41;;;;;;;23.30;12.23;;;;;;;26.77;41.16;99600.09;5077933;28;20021;-57
2022/07/30 07:30:07;;;;;;;31.35;14.43;;;;;;;26.48;41.97;99603.75;5074492;28;20094;-56
2022/07/30 07:32:33;;;;;;;30.65;13.75;;;;;;;28.75;38.45;99595.69;5074439;28;20028;-57
2022/07/30 07:34:58;;;;;;;32.97;13.98;;;;;;;27.92;38.72;99600.94;5073489;28;20394;-57
2022/07/30 07:37:24;;;;;;;24.63;13.02;;;;;;;28.31;38.08;99604.00;5073692;28;20031;-56
2022/07/30 07:39:49;;;;;;;26.65;13.60;;;;;;;28.93;37.51;99602.47;5072158;28;20157;-57
2022/07/30 07:42:15;;;;;;;26.90;11.90;;;;;;;29.57;36.86;99607.91;5072499;28;20024;-57
2022/07/30 07:44:40;;;;;;;24.55;10.95;;;;;;;30.54;34.57;99602.41;5072365;28;20026;-55
2022/07/30 07:47:06;;;;;;;27.52;11.65;;;;;;;29.99;35.64;99601.72;5073139;28;20088;-55
2022/07/30 07:49:31;;;;;;;29.50;11.63;;;;;;;29.87;35.84;99602.66;5073002;28;20029;-56
2022/07/30 07:51:56;;;;;;;35.67;11.75;;;;;;;30.17;35.63;99596.53;5074099;28;20032;-56
2022/07/30 07:54:22;;;;;;;37.08;10.07;;;;;;;30.38;35.30;99596.16;5074033;28;20024;-56
2022/07/30 07:56:47;;;;;;;20.98;9.90;;;;;;;31.66;33.58;99602.22;5074018;28;20016;-55
2022/07/30 07:59:13;;;;;;;23.15;9.82;;;;;;;29.38;36.24;99592.91;5078529;28;20085;-56
2022/07/30 08:01:38;;;;;;;30.55;10.20;;;;;;;30.06;34.96;99599.91;5073150;28;20376;-55
2022/07/30 08:04:04;;;;;;;23.30;8.93;;;;;;;31.05;34.63;99590.22;5073131;28;20051;-56
2022/07/30 08:06:29;;;;;;;25.35;10.13;;;;;;;29.65;35.85;99593.94;5073967;28;20033;-55
2022/07/30 08:08:54;;;;;;;22.70;9.73;;;;;;;29.70;35.88;99587.31;5073869;28;20054;-56
2022/07/30 08:11:20;;;;;;;17.65;8.73;;;;;;;29.60;36.42;99588.63;5077502;28;20036;-56
2022/07/30 08:13:45;;;;;;;19.35;9.93;;;;;;;26.96;40.46;99584.97;5073904;28;20025;-56
2022/07/30 08:16:13;;;;;;;20.95;9.85;;;;;;;27.00;40.84;99583.94;5072627;28;20028;-56
2022/07/30 08:18:38;;;;;;;16.30;9.07;;;;;;;28.07;39.07;99583.66;5079060;28;20024;-54
2022/07/30 08:21:04;;;;;;;31.63;10.13;;;;;;;27.26;39.76;99589.13;5073771;28;20437;-55
2022/07/30 08:23:29;;;;;;;25.80;10.60;;;;;;;27.62;39.43;99592.16;5073374;28;20024;-54
2022/07/30 08:25:58;;;;;;;20.67;8.90;;;;;;;27.52;39.69;99591.47;5073624;28;20052;-55
2022/07/30 08:28:24;;;;;;;24.08;8.65;;;;;;;28.03;39.32;99591.03;5073460;28;20085;-55
2022/07/30 08:30:49;;;;;;;22.45;9.88;;;;;;;27.81;38.63;99599.78;5073244;28;20032;-55
2022/07/30 08:33:15;;;;;;;26.45;9.48;;;;;;;26.45;41.44;99597.00;5072638;28;20033;-54
2022/07/30 08:35:40;;;;;;;17.90;9.45;;;;;;;25.86;41.95;99600.00;5073308;28;20085;-53
2022/07/30 08:38:06;;;;;;;22.40;9.88;;;;;;;26.28;41.43;99613.66;5073075;28;20056;-55
2022/07/30 08:40:32;;;;;;;21.38;9.40;;;;;;;25.22;44.22;99608.47;5072903;28;20020;-54
2022/07/30 08:42:58;;;;;;;19.10;8.88;;;;;;;26.14;42.58;99610.44;5071944;28;20122;-56
2022/07/30 08:45:24;;;;;;;20.52;9.68;;;;;;;26.44;40.94;99611.91;5073437;28;20028;-55
2022/07/30 08:47:50;;;;;;;25.25;9.98;;;;;;;25.13;43.00;99611.22;5077587;28;20532;-55
2022/07/30 08:50:15;;;;;;;24.23;9.57;;;;;;;26.28;41.39;99621.91;5066560;28;20032;-54
2022/07/30 08:52:40;;;;;;;17.77;9.18;;;;;;;25.65;42.63;99610.94;5054913;28;20035;-55
2022/07/30 08:55:06;;;;;;;19.25;8.02;;;;;;;27.72;39.05;99611.75;5072935;28;20382;-56
2022/07/30 08:57:32;;;;;;;29.25;10.98;;;;;;;25.47;43.01;99615.75;5072783;28;20387;-55
2022/07/30 08:59:58;;;;;;;19.27;8.85;;;;;;;25.01;43.50;99614.69;5072853;28;20027;-54
2022/07/30 09:02:24;;;;;;;24.75;9.18;;;;;;;26.70;40.51;99605.34;5072662;28;20149;-55
2022/07/30 09:04:49;;;;;;;21.50;9.05;;;;;;;25.73;42.66;99609.28;5071913;28;20063;-54
2022/07/30 09:07:16;;;;;;;20.15;8.57;;;;;;;25.86;41.96;99611.00;5071205;28;20102;-53
2022/07/30 09:09:41;;;;;;;18.55;8.25;;;;;;;25.46;42.58;99611.41;5072482;28;20036;-55
2022/07/30 09:12:36;;;;;;;28.40;8.45;;;;;;;25.46;42.45;99614.16;5072445;28;20030;-56
2022/07/30 09:15:14;;;;;;;21.35;8.63;;;;;;;26.27;40.73;99609.31;5072505;28;20107;-55
2022/07/30 09:17:46;;;;;;;21.17;8.13;;;;;;;25.60;41.10;99613.88;5071876;28;20103;-56
2022/07/30 09:20:11;;;;;;;18.00;8.50;;;;;;;26.21;40.49;99616.19;5072449;28;20036;-55
2022/07/30 09:22:50;;;;;;;17.60;8.18;;;;;;;24.89;41.80;99612.63;5077362;28;20041;-56
2022/07/30 09:25:36;;;;;;;20.17;8.60;;;;;;;25.42;41.52;99609.66;5072033;28;20037;-54
2022/07/30 09:28:01;;;;;;;17.30;7.10;;;;;;;27.18;38.63;99616.72;5077370;28;20039;-55
2022/07/30 09:30:42;;;;;;;21.65;7.28;;;;;;;27.41;37.80;99611.56;5072406;28;20029;-55
2022/07/30 09:33:07;;;;;;;21.27;7.80;;;;;;;26.63;38.71;99610.59;5070585;28;20028;-54
2022/07/30 09:35:33;;;;;;;24.45;6.97;;;;;;;27.88;36.78;99616.53;5072277;28;20021;-55
2022/07/30 09:37:59;;;;;;;18.42;6.47;;;;;;;27.75;37.45;99615.75;5071108;28;20394;-55
2022/07/30 09:40:24;;;;;;;19.45;7.07;;;;;;;26.83;38.72;99620.72;5072029;28;20029;-55
2022/07/30 09:43:01;;;;;;;15.95;6.88;;;;;;;27.19;38.58;99608.16;5072006;28;20029;-54
2022/07/30 09:45:26;;;;;;;20.10;7.88;;;;;;;27.29;37.90;99615.16;5072356;28;20021;-55
2022/07/30 09:47:52;;;;;;;19.80;9.00;;;;;;;25.81;40.37;99609.22;5071459;28;20109;-54
2022/07/30 09:50:23;;;;;;;18.92;8.15;;;;;;;25.48;41.68;99606.38;5070661;28;20028;-55
2022/07/30 09:52:49;;;;;;;22.02;8.15;;;;;;;26.61;39.03;99601.88;5070652;28;20064;-55
2022/07/30 09:55:27;;;;;;;19.25;7.65;;;;;;;26.48;39.74;99609.25;5075421;28;20119;-55
2022/07/30 09:57:55;;;;;;;21.40;8.38;;;;;;;25.41;41.30;99606.13;5070862;28;20100;-57
2022/07/30 10:00:22;;;;;;;16.92;7.28;;;;;;;27.29;38.76;99602.19;5071775;28;20032;-55
2022/07/30 10:02:49;;;;;;;19.23;7.25;;;;;;;26.79;38.29;99597.81;5071328;28;20505;-55
2022/07/30 10:05:15;;;;;;;15.95;6.70;;;;;;;26.87;39.22;99594.13;5072232;28;20052;-55
2022/07/30 10:07:51;;;;;;;16.80;6.70;;;;;;;26.02;39.91;99603.72;5070492;28;20170;-54
2022/07/30 10:10:21;;;;;;;23.40;7.57;;;;;;;25.48;40.61;99600.88;5072028;28;20060;-55
2022/07/30 10:12:47;;;;;;;25.02;6.75;;;;;;;27.11;38.75;99598.84;5072101;28;20107;-55
2022/07/30 10:15:12;;;;;;;17.30;5.93;;;;;;;27.29;38.39;99596.69;5070788;28;20097;-55
2022/07/30 10:17:38;;;;;;;21.00;5.80;;;;;;;28.65;36.38;99596.22;5078569;28;20028;-54
2022/07/30 10:20:06;;;;;;;20.88;7.53;;;;;;;25.68;40.04;99593.81;5070402;28;20559;-56
2022/07/30 10:22:32;;;;;;;15.45;6.22;;;;;;;26.30;39.73;99588.63;5070424;28;20024;-55
2022/07/30 10:24:58;;;;;;;16.85;6.65;;;;;;;25.90;40.45;99589.94;5070386;28;20028;-55
2022/07/30 10:27:23;;;;;;;20.50;7.57;;;;;;;26.98;38.98;99593.69;5070914;28;20028;-54
2022/07/30 10:29:48;;;;;;;16.65;7.00;;;;;;;27.16;38.10;99595.06;5070339;28;20032;-55
2022/07/30 10:32:14;;;;;;;20.15;7.65;;;;;;;25.47;40.41;99591.06;5071558;28;20032;-55
2022/07/30 10:34:39;;;;;;;17.85;7.50;;;;;;;25.74;40.46;99587.00;5052937;28;20028;-55
2022/07/30 10:37:05;;;;;;;20.02;7.47;;;;;;;25.43;40.93;99587.34;5073577;28;20020;-55
2022/07/30 10:39:34;;;;;;;18.13;7.78;;;;;;;24.18;42.75;99587.66;5079412;28;20036;-55
2022/07/30 10:42:15;;;;;;;18.48;7.65;;;;;;;24.88;42.64;99582.78;5076807;28;20050;-56
2022/07/30 10:45:17;;;;;;;18.65;6.90;;;;;;;25.57;41.67;99578.88;5087047;28;20025;-54
2022/07/30 10:47:42;;;;;;;17.23;6.40;;;;;;;27.00;39.20;99577.63;5072463;28;20089;-54
2022/07/30 10:50:09;;;;;;;14.95;7.28;;;;;;;26.47;38.88;99586.47;5071377;28;20399;-57
2022/07/30 10:52:57;;;;;;;18.75;7.07;;;;;;;25.33;41.22;99580.31;5072416;28;20107;-54
2022/07/30 10:55:29;;;;;;;21.48;8.02;;;;;;;26.22;40.61;99569.13;5072736;28;20028;-55
2022/07/30 10:58:05;;;;;;;23.00;8.05;;;;;;;25.37;41.06;99584.00;5072247;28;20075;-54
2022/07/30 11:00:36;;;;;;;16.48;7.25;;;;;;;25.13;42.37;99583.81;5072813;28;20056;-54
2022/07/30 11:03:18;;;;;;;16.40;7.60;;;;;;;25.52;41.18;99577.13;5072315;28;20064;-55
2022/07/30 11:05:47;;;;;;;19.15;7.72;;;;;;;26.13;40.69;99575.84;5072735;28;20094;-54
2022/07/30 11:08:39;;;;;;;17.77;6.70;;;;;;;26.61;39.43;99579.88;5071330;28;20048;-55
2022/07/30 11:11:31;;;;;;;22.00;7.90;;;;;;;25.77;41.05;99572.59;5070784;28;20415;-56
2022/07/30 11:13:57;;;;;;;21.02;7.00;;;;;;;26.28;39.53;99580.69;5067828;28;20110;-56
2022/07/30 11:16:44;;;;;;;15.65;6.50;;;;;;;27.38;37.92;99573.72;5073921;28;20025;-54
2022/07/30 11:19:15;;;;;;;22.27;6.00;;;;;;;27.39;37.73;99578.09;5067135;28;20040;-55
2022/07/30 11:21:41;;;;;;;15.52;6.60;;;;;;;27.47;37.91;99577.16;5073462;28;20483;-55